McGregor, Georgia
Current Conditions -  °F | °C
As of 3:35 PM on Monday 26 Jan 2015 (Local Time) from KCWV Reporting Station
Clear Clear  
Wind Chill: 52°   Ceiling: Unl
Heat Index: 52°   Visibility: 10mi
Dew Point: 39°   Wind: 23mph
Humidity: 62%   Direction: 280°W
Pressure: 29.77"   Gusts: 32mph
Location:  32.2794°N, 81.623°W
Report Text: KCWV 262035Z AUTO 28020G28KT 10SM CLR 11/04 A2977 RMK AO2
Loading
Personal Weather Stations






























Interactive Weather Map New forecast layout! Learn more

10-Day Weather Forecast

Advertisements
Track Severe Weather on mobile